Time;durP1;ratioP1;P1;durP2;ratioP2;P2;SDS_P1;SDS_P2;PMS_P1;PMS_P2;Temp;Humidity;BMP_temperature;BMP_pressure;BME280_temperature;BME280_humidity;BME280_pressure;Samples;Min_cycle;Max_cycle;Signal;HPM_P1;HPM_P2
2024/02/22 00:02:27;;;;;;;7.30;4.20;;;;;;;;;;750337;184;816086;-65
2024/02/22 00:04:49;;;;;;;7.23;3.90;;;;;;;;;;748789;184;816167;-66
2024/02/22 00:07:16;;;;;;;9.10;3.90;;;;;;;;;;751602;185;919651;-65
2024/02/22 00:09:41;;;;;;;15.82;4.90;;;;;;;;;;754052;184;822632;-64
2024/02/22 00:12:07;;;;;;;9.50;4.60;;;;;;;;;;748283;188;914611;-65
2024/02/22 00:14:34;;;;;;;9.57;4.60;;;;;;;;;;746888;187;918433;-64
2024/02/22 00:16:59;;;;;;;11.80;6.75;;;;;;;;;;752325;185;918516;-65
2024/02/22 00:19:25;;;;;;;6.00;3.10;;;;;;;;;;754995;182;915603;-64
2024/02/22 00:21:51;;;;;;;9.10;3.70;;;;;;;;;;752817;185;918680;-65
2024/02/22 00:24:16;;;;;;;5.57;3.07;;;;;;;;;;752296;181;922329;-65
2024/02/22 00:26:42;;;;;;;9.27;4.50;;;;;;;;;;758067;185;1011545;-64
2024/02/22 00:29:08;;;;;;;8.00;3.50;;;;;;;;;;753666;185;815501;-65
2024/02/22 00:31:34;;;;;;;9.27;4.27;;;;;;;;;;751592;184;1020685;-66
2024/02/22 00:34:00;;;;;;;9.60;4.57;;;;;;;;;;755598;185;919385;-64
2024/02/22 00:36:25;;;;;;;12.30;4.00;;;;;;;;;;749240;184;918385;-66
2024/02/22 00:38:51;;;;;;;16.20;4.57;;;;;;;;;;751293;184;869785;-64
2024/02/22 00:41:17;;;;;;;10.83;4.13;;;;;;;;;;750538;185;944805;-64
2024/02/22 00:43:43;;;;;;;6.00;3.80;;;;;;;;;;754681;185;817440;-65
2024/02/22 00:46:09;;;;;;;8.33;3.70;;;;;;;;;;752724;184;1021622;-66
2024/02/22 00:48:35;;;;;;;4.80;2.90;;;;;;;;;;750194;185;918775;-64
2024/02/22 00:51:01;;;;;;;10.80;3.60;;;;;;;;;;753869;185;920468;-64
2024/02/22 00:53:27;;;;;;;8.80;3.47;;;;;;;;;;751273;184;819402;-65
2024/02/22 00:55:52;;;;;;;6.73;3.60;;;;;;;;;;749077;186;920335;-64
2024/02/22 00:58:18;;;;;;;6.20;3.60;;;;;;;;;;752368;184;919378;-64
2024/02/22 01:00:44;;;;;;;10.27;3.77;;;;;;;;;;748975;185;916758;-63
2024/02/22 01:03:10;;;;;;;13.97;4.23;;;;;;;;;;752074;185;917464;-65
2024/02/22 01:05:36;;;;;;;7.93;3.30;;;;;;;;;;748628;185;1052030;-64
2024/02/22 01:08:03;;;;;;;7.90;3.33;;;;;;;;;;758850;184;767423;-64
2024/02/22 01:10:27;;;;;;;9.27;4.10;;;;;;;;;;749780;185;922783;-65
2024/02/22 01:12:53;;;;;;;13.50;3.40;;;;;;;;;;748633;185;872722;-65
2024/02/22 01:15:19;;;;;;;10.10;3.80;;;;;;;;;;752983;184;919178;-65
2024/02/22 01:17:47;;;;;;;6.60;3.40;;;;;;;;;;748075;185;918853;-65
2024/02/22 01:20:11;;;;;;;7.07;3.60;;;;;;;;;;750605;185;919575;-64
2024/02/22 01:22:37;;;;;;;8.60;3.47;;;;;;;;;;755349;185;941804;-64
2024/02/22 01:25:03;;;;;;;7.43;3.40;;;;;;;;;;749394;185;917976;-65
2024/02/22 01:27:29;;;;;;;9.25;3.75;;;;;;;;;;752820;185;864790;-65
2024/02/22 01:29:56;;;;;;;9.73;4.33;;;;;;;;;;749280;184;917336;-65
2024/02/22 01:32:20;;;;;;;7.30;3.50;;;;;;;;;;759645;182;817561;-65
2024/02/22 01:34:46;;;;;;;7.32;4.28;;;;;;;;;;749109;185;956471;-67
2024/02/22 01:37:12;;;;;;;6.37;4.20;;;;;;;;;;749131;185;939957;-64
2024/02/22 01:39:38;;;;;;;6.93;3.77;;;;;;;;;;755258;183;920081;-64
2024/02/22 01:42:04;;;;;;;10.47;3.90;;;;;;;;;;747939;185;919346;-64
2024/02/22 01:44:30;;;;;;;8.37;4.50;;;;;;;;;;749977;185;918670;-67
2024/02/22 01:46:56;;;;;;;9.33;4.47;;;;;;;;;;756523;185;900532;-66
2024/02/22 01:49:22;;;;;;;8.70;4.00;;;;;;;;;;751473;183;917127;-66
2024/02/22 01:51:48;;;;;;;10.77;3.97;;;;;;;;;;752808;184;918900;-66
2024/02/22 01:54:14;;;;;;;7.82;4.47;;;;;;;;;;752356;185;912420;-65
2024/02/22 01:56:40;;;;;;;5.80;3.90;;;;;;;;;;751387;185;917002;-67
2024/02/22 01:59:06;;;;;;;7.50;5.00;;;;;;;;;;749708;185;919520;-63
2024/02/22 02:01:31;;;;;;;9.88;4.32;;;;;;;;;;747685;185;925996;-65
2024/02/22 02:03:57;;;;;;;6.90;3.73;;;;;;;;;;754492;185;916484;-64
2024/02/22 02:06:23;;;;;;;8.10;4.53;;;;;;;;;;748825;185;918742;-64
2024/02/22 02:08:49;;;;;;;6.72;4.25;;;;;;;;;;750304;185;955028;-64
2024/02/22 02:11:15;;;;;;;8.20;4.13;;;;;;;;;;752425;185;918942;-64
2024/02/22 02:13:41;;;;;;;5.80;3.40;;;;;;;;;;751823;183;918660;-65
2024/02/22 02:16:06;;;;;;;7.40;4.30;;;;;;;;;;749954;185;920693;-64
2024/02/22 02:18:32;;;;;;;5.93;3.30;;;;;;;;;;755592;185;813596;-65
2024/02/22 02:21:04;;;;;;;8.57;4.50;;;;;;;;;;750942;184;917310;-65
2024/02/22 02:23:36;;;;;;;11.50;4.97;;;;;;;;;;748014;185;1014450;-66
2024/02/22 02:26:04;;;;;;;8.80;4.67;;;;;;;;;;749404;185;867809;-66
2024/02/22 02:28:28;;;;;;;5.40;3.45;;;;;;;;;;753786;183;920085;-65
2024/02/22 02:30:54;;;;;;;9.07;5.60;;;;;;;;;;747723;185;919426;-66
2024/02/22 02:33:20;;;;;;;8.17;5.00;;;;;;;;;;747725;185;913438;-65
2024/02/22 02:35:46;;;;;;;8.13;4.70;;;;;;;;;;747040;185;918884;-65
2024/02/22 02:38:12;;;;;;;11.53;5.27;;;;;;;;;;757618;185;860132;-66
2024/02/22 02:40:38;;;;;;;13.87;5.07;;;;;;;;;;750098;185;878621;-65
2024/02/22 02:43:05;;;;;;;8.73;5.05;;;;;;;;;;753641;184;905871;-65
2024/02/22 02:45:30;;;;;;;12.43;5.30;;;;;;;;;;754334;185;925792;-65
2024/02/22 02:47:55;;;;;;;9.60;5.43;;;;;;;;;;742790;187;919605;-64
2024/02/22 02:50:21;;;;;;;6.97;5.10;;;;;;;;;;751281;185;762311;-61
2024/02/22 02:52:47;;;;;;;12.90;5.20;;;;;;;;;;754382;184;895809;-66
2024/02/22 02:55:13;;;;;;;7.90;4.30;;;;;;;;;;752912;184;817007;-65
2024/02/22 02:57:39;;;;;;;10.80;4.73;;;;;;;;;;747844;183;920625;-65
2024/02/22 03:00:08;;;;;;;5.80;3.60;;;;;;;;;;746737;185;918803;-65
2024/02/22 03:02:31;;;;;;;13.53;5.30;;;;;;;;;;756888;185;919189;-63
2024/02/22 03:04:57;;;;;;;11.00;4.93;;;;;;;;;;750750;185;918947;-65
2024/02/22 03:07:23;;;;;;;10.60;4.70;;;;;;;;;;752076;185;915692;-69
2024/02/22 03:09:50;;;;;;;7.87;4.73;;;;;;;;;;753024;185;919003;-66
2024/02/22 03:12:14;;;;;;;9.50;5.17;;;;;;;;;;750455;184;1019816;-65
2024/02/22 03:14:40;;;;;;;7.20;3.97;;;;;;;;;;749963;185;918812;-65
2024/02/22 03:17:06;;;;;;;8.70;4.17;;;;;;;;;;754894;185;817363;-66
2024/02/22 03:19:32;;;;;;;8.73;4.90;;;;;;;;;;746824;185;919337;-65
2024/02/22 03:21:58;;;;;;;7.70;3.63;;;;;;;;;;750078;185;918713;-63
2024/02/22 03:24:24;;;;;;;11.23;4.60;;;;;;;;;;749761;184;921178;-64
2024/02/22 03:26:49;;;;;;;6.17;3.97;;;;;;;;;;756091;182;943300;-62
2024/02/22 03:29:15;;;;;;;8.73;4.73;;;;;;;;;;750552;184;919937;-66
2024/02/22 03:31:43;;;;;;;9.20;4.70;;;;;;;;;;749091;184;913904;-66
2024/02/22 03:34:08;;;;;;;6.50;4.22;;;;;;;;;;753645;184;941158;-65
2024/02/22 03:36:33;;;;;;;8.60;4.43;;;;;;;;;;747851;185;918898;-64
2024/02/22 03:38:59;;;;;;;14.60;4.20;;;;;;;;;;748633;185;920706;-67
2024/02/22 03:41:24;;;;;;;9.07;4.60;;;;;;;;;;752775;186;875197;-64
2024/02/22 03:43:50;;;;;;;13.70;5.33;;;;;;;;;;749985;185;919980;-64
2024/02/22 03:46:16;;;;;;;8.03;4.67;;;;;;;;;;745867;185;922774;-65
2024/02/22 03:48:42;;;;;;;8.50;5.20;;;;;;;;;;746910;185;960464;-65
2024/02/22 03:51:08;;;;;;;16.63;5.10;;;;;;;;;;757520;184;864946;-65
2024/02/22 03:53:34;;;;;;;8.80;4.60;;;;;;;;;;748620;184;816993;-66
2024/02/22 03:55:59;;;;;;;9.20;4.00;;;;;;;;;;750479;185;912308;-66
2024/02/22 03:58:26;;;;;;;17.63;6.37;;;;;;;;;;755353;185;913374;-62
2024/02/22 04:00:51;;;;;;;13.37;4.93;;;;;;;;;;747557;184;1056692;-66
2024/02/22 04:03:17;;;;;;;8.48;4.62;;;;;;;;;;750452;185;897057;-64
2024/02/22 04:05:44;;;;;;;6.87;3.77;;;;;;;;;;757344;184;918762;-64
2024/02/22 04:08:09;;;;;;;6.60;4.00;;;;;;;;;;750203;184;918815;-65
2024/02/22 04:10:35;;;;;;;7.30;3.90;;;;;;;;;;750733;185;919820;-64
2024/02/22 04:13:01;;;;;;;9.30;4.77;;;;;;;;;;757955;182;918107;-63
2024/02/22 04:15:26;;;;;;;13.93;4.30;;;;;;;;;;747847;185;957175;-64
2024/02/22 04:17:52;;;;;;;7.93;4.30;;;;;;;;;;748768;185;918843;-65
2024/02/22 04:20:18;;;;;;;6.20;3.70;;;;;;;;;;748204;185;919739;-64
2024/02/22 04:22:45;;;;;;;11.80;4.50;;;;;;;;;;753731;185;919251;-66
2024/02/22 04:25:10;;;;;;;5.17;3.47;;;;;;;;;;749370;185;1026361;-63
2024/02/22 04:27:36;;;;;;;10.17;4.00;;;;;;;;;;757255;183;918281;-65
2024/02/22 04:30:02;;;;;;;10.70;3.90;;;;;;;;;;755371;182;881792;-65
2024/02/22 04:32:27;;;;;;;7.17;4.57;;;;;;;;;;750430;185;918655;-64
2024/02/22 04:34:53;;;;;;;13.37;5.10;;;;;;;;;;749207;185;918775;-66
2024/02/22 04:37:19;;;;;;;8.20;3.50;;;;;;;;;;756248;185;815783;-66
2024/02/22 04:39:45;;;;;;;5.60;3.40;;;;;;;;;;749325;185;918926;-65
2024/02/22 04:42:11;;;;;;;5.67;3.40;;;;;;;;;;747109;185;1019936;-67
2024/02/22 04:44:37;;;;;;;9.00;4.13;;;;;;;;;;750264;185;965642;-67
2024/02/22 04:47:03;;;;;;;9.67;4.30;;;;;;;;;;750462;185;812381;-66
2024/02/22 04:49:28;;;;;;;9.97;4.00;;;;;;;;;;750812;185;919712;-64
2024/02/22 04:51:54;;;;;;;8.03;3.50;;;;;;;;;;751807;185;850109;-66
2024/02/22 04:54:20;;;;;;;7.13;4.47;;;;;;;;;;756954;185;873858;-63
2024/02/22 04:56:46;;;;;;;6.17;3.70;;;;;;;;;;752308;185;781226;-65
2024/02/22 04:59:12;;;;;;;7.05;3.65;;;;;;;;;;752626;185;919655;-67
2024/02/22 05:01:37;;;;;;;6.70;4.00;;;;;;;;;;754989;185;816989;-64
2024/02/22 05:04:03;;;;;;;5.90;3.47;;;;;;;;;;749326;185;846320;-64
2024/02/22 05:06:29;;;;;;;7.87;4.30;;;;;;;;;;754264;184;883022;-67
2024/02/22 05:08:55;;;;;;;10.13;4.37;;;;;;;;;;753617;184;623879;-65
2024/02/22 05:11:21;;;;;;;11.73;6.60;;;;;;;;;;753006;187;622581;-66
2024/02/22 05:13:49;;;;;;;6.00;3.90;;;;;;;;;;755104;185;613640;-64
2024/02/22 05:16:14;;;;;;;6.93;4.00;;;;;;;;;;752213;183;631965;-64
2024/02/22 05:18:39;;;;;;;10.30;4.40;;;;;;;;;;761759;185;715194;-67
2024/02/22 05:21:04;;;;;;;6.73;4.00;;;;;;;;;;757381;185;619231;-64
2024/02/22 05:23:30;;;;;;;6.63;3.60;;;;;;;;;;754118;185;625141;-69
2024/02/22 05:25:56;;;;;;;7.00;3.53;;;;;;;;;;759605;184;626544;-65
2024/02/22 05:28:22;;;;;;;8.33;3.33;;;;;;;;;;753602;184;623318;-65
2024/02/22 05:30:49;;;;;;;7.33;3.97;;;;;;;;;;753309;185;629550;-65
2024/02/22 05:33:14;;;;;;;8.67;3.70;;;;;;;;;;757007;184;618023;-64
2024/02/22 05:35:40;;;;;;;7.17;3.97;;;;;;;;;;751165;185;659039;-64
2024/02/22 05:38:05;;;;;;;5.67;3.33;;;;;;;;;;753463;184;628002;-64
2024/02/22 05:40:31;;;;;;;6.60;3.50;;;;;;;;;;754898;185;623962;-63
2024/02/22 05:42:58;;;;;;;10.10;4.80;;;;;;;;;;760376;185;623910;-65
2024/02/22 05:45:29;;;;;;;9.53;5.07;;;;;;;;;;755952;184;628613;-67
2024/02/22 05:47:55;;;;;;;10.90;5.40;;;;;;;;;;753702;184;624041;-65
2024/02/22 05:50:20;;;;;;;20.30;7.70;;;;;;;;;;755483;184;621093;-64
2024/02/22 05:52:47;;;;;;;11.03;5.30;;;;;;;;;;751545;184;637809;-67
2024/02/22 05:55:13;;;;;;;8.73;5.37;;;;;;;;;;752651;185;625317;-64
2024/02/22 05:57:39;;;;;;;9.70;5.60;;;;;;;;;;756769;185;622420;-64
2024/02/22 06:00:06;;;;;;;12.47;7.67;;;;;;;;;;755627;185;616073;-64
2024/02/22 06:02:31;;;;;;;18.90;9.70;;;;;;;;;;751571;183;819344;-63
2024/02/22 06:04:57;;;;;;;13.40;8.20;;;;;;;;;;751005;184;943628;-66
2024/02/22 06:07:22;;;;;;;11.83;7.33;;;;;;;;;;753581;184;919169;-66
2024/02/22 06:09:48;;;;;;;9.50;6.00;;;;;;;;;;752051;185;828947;-64
2024/02/22 06:12:14;;;;;;;9.77;5.70;;;;;;;;;;751461;185;871431;-65
2024/02/22 06:14:40;;;;;;;12.60;6.93;;;;;;;;;;753667;185;905356;-63
2024/02/22 06:17:06;;;;;;;15.37;7.60;;;;;;;;;;747868;183;897329;-67
2024/02/22 06:19:32;;;;;;;10.27;6.53;;;;;;;;;;749197;184;858601;-64
2024/02/22 06:21:58;;;;;;;10.30;5.87;;;;;;;;;;744103;185;915118;-65
2024/02/22 06:24:24;;;;;;;12.50;6.20;;;;;;;;;;754988;184;917461;-66
2024/02/22 06:26:49;;;;;;;15.97;7.00;;;;;;;;;;748019;182;918514;-65
2024/02/22 06:29:15;;;;;;;14.77;7.73;;;;;;;;;;749045;184;915688;-64
2024/02/22 06:31:41;;;;;;;17.90;7.68;;;;;;;;;;754984;184;903442;-65
2024/02/22 06:34:07;;;;;;;13.90;7.33;;;;;;;;;;752679;185;918917;-64
2024/02/22 06:36:33;;;;;;;14.77;8.60;;;;;;;;;;750771;185;919052;-63
2024/02/22 06:38:58;;;;;;;18.27;7.70;;;;;;;;;;756082;184;913040;-66
2024/02/22 06:41:24;;;;;;;12.03;6.30;;;;;;;;;;748899;185;920265;-66
2024/02/22 06:43:50;;;;;;;9.50;5.47;;;;;;;;;;750048;185;919143;-63
2024/02/22 06:46:16;;;;;;;8.10;5.70;;;;;;;;;;749506;185;919252;-64
2024/02/22 06:48:42;;;;;;;9.93;3.93;;;;;;;;;;753870;184;932673;-64
2024/02/22 06:51:08;;;;;;;8.60;3.90;;;;;;;;;;750394;185;919043;-63
2024/02/22 06:53:34;;;;;;;8.00;3.85;;;;;;;;;;749586;184;937408;-66
2024/02/22 06:55:59;;;;;;;10.93;3.90;;;;;;;;;;755505;185;861075;-66
2024/02/22 06:58:25;;;;;;;6.57;3.50;;;;;;;;;;751011;184;918759;-64
2024/02/22 07:00:51;;;;;;;6.73;4.30;;;;;;;;;;751081;185;920759;-67
2024/02/22 07:03:17;;;;;;;11.83;4.43;;;;;;;;;;755257;185;918189;-66
2024/02/22 07:05:43;;;;;;;6.07;3.97;;;;;;;;;;748538;185;919724;-63
2024/02/22 07:08:09;;;;;;;6.13;4.30;;;;;;;;;;750929;184;819481;-65
2024/02/22 07:10:34;;;;;;;13.57;3.90;;;;;;;;;;755785;185;918775;-66
2024/02/22 07:13:01;;;;;;;9.97;4.90;;;;;;;;;;746695;185;1000042;-62
2024/02/22 07:15:26;;;;;;;10.40;6.37;;;;;;;;;;749564;183;919174;-66
2024/02/22 07:17:52;;;;;;;10.30;5.70;;;;;;;;;;750166;184;893163;-64
2024/02/22 07:20:18;;;;;;;84.47;41.87;;;;;;;;;;755924;183;862203;-65
2024/02/22 07:22:47;;;;;;;28.17;15.33;;;;;;;;;;750783;185;890447;-67
2024/02/22 07:25:11;;;;;;;11.87;7.93;;;;;;;;;;751473;185;889391;-64
2024/02/22 07:27:39;;;;;;;18.65;12.05;;;;;;;;;;753233;184;925326;-67
2024/02/22 07:30:05;;;;;;;26.43;15.80;;;;;;;;;;753528;183;785431;-63
2024/02/22 07:32:29;;;;;;;21.37;12.30;;;;;;;;;;750138;183;902811;-64
2024/02/22 07:34:55;;;;;;;19.17;9.03;;;;;;;;;;753907;185;918566;-66
2024/02/22 07:37:21;;;;;;;10.67;6.33;;;;;;;;;;752891;183;860997;-67
2024/02/22 07:39:46;;;;;;;12.37;6.43;;;;;;;;;;747628;185;929252;-64
2024/02/22 07:42:12;;;;;;;6.80;4.37;;;;;;;;;;750186;185;919555;-64
2024/02/22 07:44:38;;;;;;;9.87;5.30;;;;;;;;;;754379;184;947283;-64
2024/02/22 07:47:04;;;;;;;7.40;4.47;;;;;;;;;;753406;184;862418;-64
2024/02/22 07:49:30;;;;;;;11.73;4.90;;;;;;;;;;750097;184;880371;-67
2024/02/22 07:51:56;;;;;;;13.50;4.37;;;;;;;;;;751559;185;894709;-66
2024/02/22 07:54:21;;;;;;;8.10;4.27;;;;;;;;;;750027;184;1013434;-64
2024/02/22 07:56:47;;;;;;;5.62;4.10;;;;;;;;;;744858;185;939912;-63
2024/02/22 07:59:14;;;;;;;7.10;3.27;;;;;;;;;;752703;185;919890;-66
2024/02/22 08:01:40;;;;;;;5.03;4.10;;;;;;;;;;749648;185;868311;-63
2024/02/22 08:04:05;;;;;;;8.30;4.83;;;;;;;;;;751034;185;786978;-66
2024/02/22 08:06:31;;;;;;;6.13;3.57;;;;;;;;;;747405;185;919803;-64
2024/02/22 08:08:56;;;;;;;6.33;3.77;;;;;;;;;;750221;184;931070;-67
2024/02/22 08:11:24;;;;;;;6.28;4.05;;;;;;;;;;747954;187;918443;-68
2024/02/22 08:13:48;;;;;;;10.03;4.47;;;;;;;;;;749654;184;817122;-68
2024/02/22 08:16:14;;;;;;;8.50;4.17;;;;;;;;;;753404;185;918686;-64
2024/02/22 08:18:40;;;;;;;7.00;3.77;;;;;;;;;;747534;185;919840;-64
2024/02/22 08:21:06;;;;;;;13.83;6.57;;;;;;;;;;748984;185;812929;-66
2024/02/22 08:23:31;;;;;;;9.53;4.30;;;;;;;;;;761519;185;714715;-67
2024/02/22 08:25:57;;;;;;;9.40;4.83;;;;;;;;;;748155;184;925756;-64
2024/02/22 08:28:23;;;;;;;10.47;4.43;;;;;;;;;;751334;184;919562;-66
2024/02/22 08:30:49;;;;;;;6.80;3.80;;;;;;;;;;749318;185;919585;-66
2024/02/22 08:33:15;;;;;;;5.03;3.53;;;;;;;;;;750047;185;915326;-63
2024/02/22 08:35:41;;;;;;;5.40;3.70;;;;;;;;;;749697;185;919107;-66
2024/02/22 08:38:07;;;;;;;8.47;5.13;;;;;;;;;;747527;185;913563;-67
2024/02/22 08:40:32;;;;;;;6.47;4.10;;;;;;;;;;757420;184;817237;-66
2024/02/22 08:43:00;;;;;;;7.83;4.20;;;;;;;;;;750322;184;921789;-64
2024/02/22 08:45:24;;;;;;;7.93;3.73;;;;;;;;;;751110;185;990905;-64
2024/02/22 08:47:50;;;;;;;7.18;4.10;;;;;;;;;;756379;184;917436;-64
2024/02/22 08:50:16;;;;;;;7.20;4.10;;;;;;;;;;753545;185;917158;-66
2024/02/22 08:52:42;;;;;;;13.37;4.50;;;;;;;;;;750185;185;920175;-63
2024/02/22 08:55:07;;;;;;;6.45;3.55;;;;;;;;;;753251;185;915785;-62
2024/02/22 08:57:33;;;;;;;7.23;4.10;;;;;;;;;;750354;185;917044;-63
2024/02/22 08:59:59;;;;;;;8.90;5.17;;;;;;;;;;748763;185;1020978;-64
2024/02/22 09:02:25;;;;;;;5.97;4.10;;;;;;;;;;745532;183;917715;-64
2024/02/22 09:04:51;;;;;;;12.97;5.07;;;;;;;;;;754568;185;919574;-68
2024/02/22 09:07:17;;;;;;;10.10;4.80;;;;;;;;;;750332;185;820360;-64
2024/02/22 09:09:45;;;;;;;9.10;5.00;;;;;;;;;;752747;185;918798;-67
2024/02/22 09:12:08;;;;;;;7.27;4.63;;;;;;;;;;757017;184;919122;-66
2024/02/22 09:14:34;;;;;;;6.90;4.40;;;;;;;;;;749436;184;1020740;-63
2024/02/22 09:17:00;;;;;;;7.17;4.03;;;;;;;;;;750489;185;919310;-64
2024/02/22 09:19:26;;;;;;;6.90;3.90;;;;;;;;;;753228;185;866334;-64
2024/02/22 09:21:54;;;;;;;9.68;5.57;;;;;;;;;;745845;185;903452;-67
2024/02/22 09:24:18;;;;;;;7.53;4.50;;;;;;;;;;749781;182;912412;-64
2024/02/22 09:26:43;;;;;;;8.97;4.30;;;;;;;;;;751801;184;878692;-64
2024/02/22 09:29:10;;;;;;;7.50;4.53;;;;;;;;;;755223;184;866991;-64
2024/02/22 09:31:35;;;;;;;8.47;4.17;;;;;;;;;;749281;185;814029;-64
2024/02/22 09:34:01;;;;;;;7.10;3.87;;;;;;;;;;747817;185;827801;-66
2024/02/22 09:36:27;;;;;;;8.77;5.30;;;;;;;;;;756539;185;816224;-63
2024/02/22 09:38:53;;;;;;;6.97;4.27;;;;;;;;;;751786;185;907289;-67
2024/02/22 09:41:19;;;;;;;7.62;3.60;;;;;;;;;;748624;185;916210;-66
2024/02/22 09:43:44;;;;;;;8.83;4.60;;;;;;;;;;754507;185;920557;-64
2024/02/22 09:46:11;;;;;;;7.20;3.87;;;;;;;;;;748638;185;917803;-66
2024/02/22 09:48:36;;;;;;;5.97;3.80;;;;;;;;;;747880;184;918440;-66
2024/02/22 09:51:02;;;;;;;11.70;4.07;;;;;;;;;;748589;184;917277;-64
2024/02/22 09:53:28;;;;;;;14.73;4.23;;;;;;;;;;738248;184;894129;-66
2024/02/22 09:55:54;;;;;;;6.80;4.10;;;;;;;;;;748086;185;920128;-64
2024/02/22 09:58:21;;;;;;;7.93;4.33;;;;;;;;;;750750;185;913876;-64
2024/02/22 10:00:45;;;;;;;8.53;4.20;;;;;;;;;;757313;184;896411;-66
2024/02/22 10:03:11;;;;;;;9.30;5.13;;;;;;;;;;750775;185;917749;-67
2024/02/22 10:05:38;;;;;;;8.40;4.83;;;;;;;;;;750131;183;980877;-64
2024/02/22 10:08:10;;;;;;;13.23;4.67;;;;;;;;;;754474;184;862771;-64
2024/02/22 10:10:35;;;;;;;9.50;4.33;;;;;;;;;;753708;184;862316;-64
2024/02/22 10:13:03;;;;;;;12.10;5.50;;;;;;;;;;748430;185;926557;-64
2024/02/22 10:15:29;;;;;;;10.03;5.27;;;;;;;;;;747985;185;919015;-64
2024/02/22 10:17:53;;;;;;;10.83;5.07;;;;;;;;;;755279;184;843397;-63
2024/02/22 10:20:19;;;;;;;10.07;4.70;;;;;;;;;;749614;184;919333;-68
2024/02/22 10:22:46;;;;;;;8.37;4.77;;;;;;;;;;750338;185;919067;-63
2024/02/22 10:25:12;;;;;;;9.00;4.47;;;;;;;;;;757938;184;921539;-64
2024/02/22 10:27:37;;;;;;;11.07;4.75;;;;;;;;;;752847;184;921038;-66
2024/02/22 10:30:08;;;;;;;9.73;5.73;;;;;;;;;;752747;185;894274;-64
2024/02/22 10:32:34;;;;;;;10.27;5.60;;;;;;;;;;750995;185;919733;-63
2024/02/22 10:35:00;;;;;;;15.10;5.53;;;;;;;;;;753456;185;813747;-68
2024/02/22 10:37:26;;;;;;;9.50;5.40;;;;;;;;;;749685;184;914948;-66
2024/02/22 10:39:52;;;;;;;11.73;5.60;;;;;;;;;;752586;185;915775;-68
2024/02/22 10:42:17;;;;;;;9.35;5.20;;;;;;;;;;756681;184;878718;-63
2024/02/22 10:44:44;;;;;;;10.77;5.77;;;;;;;;;;747749;184;822404;-63
2024/02/22 10:47:11;;;;;;;9.03;5.47;;;;;;;;;;749731;185;849472;-68
2024/02/22 10:49:36;;;;;;;9.82;6.40;;;;;;;;;;751028;183;910195;-64
2024/02/22 10:52:02;;;;;;;15.03;5.80;;;;;;;;;;738298;185;903033;-68
2024/02/22 10:54:29;;;;;;;13.30;6.17;;;;;;;;;;733049;185;868925;-63
2024/02/22 10:56:54;;;;;;;13.80;5.50;;;;;;;;;;730103;185;916700;-67
2024/02/22 10:59:20;;;;;;;8.53;4.80;;;;;;;;;;737561;186;918328;-67
2024/02/22 11:01:46;;;;;;;8.13;4.90;;;;;;;;;;751407;182;910857;-63
2024/02/22 11:04:13;;;;;;;8.67;4.83;;;;;;;;;;754445;183;921814;-62
2024/02/22 11:06:38;;;;;;;10.30;6.27;;;;;;;;;;758747;183;703909;-63
2024/02/22 11:09:04;;;;;;;9.63;5.30;;;;;;;;;;750452;185;917800;-65
2024/02/22 11:11:29;;;;;;;11.18;5.40;;;;;;;;;;752150;185;917112;-66
2024/02/22 11:13:55;;;;;;;8.70;5.57;;;;;;;;;;755644;181;919348;-63
2024/02/22 11:16:21;;;;;;;8.70;5.30;;;;;;;;;;749162;185;903241;-66
2024/02/22 11:18:49;;;;;;;10.57;5.65;;;;;;;;;;753766;184;919481;-64
2024/02/22 11:21:13;;;;;;;12.00;6.60;;;;;;;;;;749039;185;917018;-63
2024/02/22 11:23:38;;;;;;;9.73;6.07;;;;;;;;;;752206;185;916280;-69
2024/02/22 11:26:04;;;;;;;13.02;6.03;;;;;;;;;;748284;185;956705;-65
2024/02/22 11:28:30;;;;;;;8.20;5.53;;;;;;;;;;749760;185;920936;-66
2024/02/22 11:30:57;;;;;;;8.73;5.47;;;;;;;;;;756209;185;916287;-64
2024/02/22 11:33:22;;;;;;;8.33;5.37;;;;;;;;;;750982;184;913925;-67
2024/02/22 11:35:48;;;;;;;8.97;5.33;;;;;;;;;;749833;185;916725;-67
2024/02/22 11:38:13;;;;;;;13.63;5.67;;;;;;;;;;752583;184;1021778;-66
2024/02/22 11:40:41;;;;;;;8.37;4.20;;;;;;;;;;745327;184;980278;-66
2024/02/22 11:43:05;;;;;;;8.17;4.87;;;;;;;;;;748199;185;918675;-67
2024/02/22 11:45:31;;;;;;;9.43;6.07;;;;;;;;;;749083;184;939971;-67
2024/02/22 11:47:57;;;;;;;11.50;6.40;;;;;;;;;;754905;184;834091;-67
2024/02/22 11:50:23;;;;;;;14.80;6.80;;;;;;;;;;747755;185;918929;-66
2024/02/22 11:52:49;;;;;;;14.67;7.10;;;;;;;;;;754092;184;881694;-66
2024/02/22 11:55:15;;;;;;;9.98;6.30;;;;;;;;;;756847;184;873981;-64
2024/02/22 11:57:41;;;;;;;8.97;5.80;;;;;;;;;;751409;185;916925;-67
2024/02/22 12:00:07;;;;;;;17.53;6.77;;;;;;;;;;751704;184;877652;-63
2024/02/22 12:02:33;;;;;;;9.33;6.50;;;;;;;;;;753256;185;919844;-67
2024/02/22 12:04:59;;;;;;;9.77;6.63;;;;;;;;;;749952;184;918158;-64
2024/02/22 12:07:25;;;;;;;14.90;6.50;;;;;;;;;;740023;185;920828;-63
2024/02/22 12:09:51;;;;;;;10.50;5.70;;;;;;;;;;751096;185;840491;-63
2024/02/22 12:12:16;;;;;;;11.10;6.43;;;;;;;;;;745972;187;917354;-68
2024/02/22 12:14:42;;;;;;;9.10;6.40;;;;;;;;;;744523;185;879301;-63
2024/02/22 12:17:10;;;;;;;11.77;7.37;;;;;;;;;;745319;184;984357;-63
2024/02/22 12:19:34;;;;;;;11.43;6.43;;;;;;;;;;755731;184;868791;-68
2024/02/22 12:22:01;;;;;;;11.03;5.70;;;;;;;;;;752852;184;917538;-64
2024/02/22 12:24:28;;;;;;;8.53;6.03;;;;;;;;;;752306;183;929898;-67
2024/02/22 12:26:54;;;;;;;8.53;5.83;;;;;;;;;;754128;184;922136;-68
2024/02/22 12:29:20;;;;;;;14.83;5.90;;;;;;;;;;749647;185;1025602;-63
2024/02/22 12:31:46;;;;;;;9.60;6.37;;;;;;;;;;746749;185;952417;-68
2024/02/22 12:34:12;;;;;;;16.43;6.23;;;;;;;;;;751118;185;818145;-66
2024/02/22 12:36:38;;;;;;;9.80;6.87;;;;;;;;;;748898;187;922584;-66
2024/02/22 12:39:03;;;;;;;12.17;7.07;;;;;;;;;;748826;185;827155;-68
2024/02/22 12:41:29;;;;;;;14.83;8.47;;;;;;;;;;751478;184;886648;-64
2024/02/22 12:43:57;;;;;;;9.87;6.33;;;;;;;;;;756952;183;723692;-64
2024/02/22 12:46:21;;;;;;;9.47;6.23;;;;;;;;;;754347;184;713101;-67
2024/02/22 12:48:47;;;;;;;11.60;6.67;;;;;;;;;;750174;185;850412;-63
2024/02/22 12:51:13;;;;;;;10.33;5.80;;;;;;;;;;753052;184;916426;-62
2024/02/22 12:53:39;;;;;;;10.70;6.60;;;;;;;;;;747383;183;921141;-63
2024/02/22 12:56:04;;;;;;;8.60;5.63;;;;;;;;;;747532;184;926808;-64
2024/02/22 12:58:30;;;;;;;9.93;5.97;;;;;;;;;;749921;185;915628;-68
2024/02/22 13:00:56;;;;;;;8.57;5.43;;;;;;;;;;758827;184;838959;-63
2024/02/22 13:03:22;;;;;;;9.73;5.82;;;;;;;;;;748069;185;851940;-69
2024/02/22 13:05:48;;;;;;;10.00;6.50;;;;;;;;;;749310;185;774332;-64
2024/02/22 13:08:14;;;;;;;11.10;6.63;;;;;;;;;;757022;185;782999;-64
2024/02/22 13:10:39;;;;;;;9.07;6.73;;;;;;;;;;752349;185;918260;-67
2024/02/22 13:13:06;;;;;;;12.17;5.63;;;;;;;;;;750280;185;942308;-66
2024/02/22 13:15:33;;;;;;;8.87;6.33;;;;;;;;;;756290;185;632706;-67
2024/02/22 13:17:59;;;;;;;11.87;6.80;;;;;;;;;;748430;185;891301;-63
2024/02/22 13:20:25;;;;;;;8.10;6.10;;;;;;;;;;748892;185;848965;-61
2024/02/22 13:22:50;;;;;;;12.13;7.17;;;;;;;;;;754629;184;812100;-66
2024/02/22 13:25:16;;;;;;;10.33;6.60;;;;;;;;;;748860;185;813501;-66
2024/02/22 13:27:41;;;;;;;8.77;6.23;;;;;;;;;;747511;184;916015;-67
2024/02/22 13:30:10;;;;;;;9.17;5.70;;;;;;;;;;749077;185;918357;-67
2024/02/22 13:32:33;;;;;;;12.37;6.50;;;;;;;;;;758688;185;626478;-68
2024/02/22 13:34:59;;;;;;;12.77;6.53;;;;;;;;;;754836;185;633191;-67
2024/02/22 13:37:25;;;;;;;10.03;6.13;;;;;;;;;;746905;185;816056;-68
2024/02/22 13:39:51;;;;;;;9.13;5.97;;;;;;;;;;756345;185;618904;-64
2024/02/22 13:42:17;;;;;;;11.57;6.90;;;;;;;;;;754246;185;616058;-65
2024/02/22 13:44:43;;;;;;;11.77;5.97;;;;;;;;;;749266;185;820342;-62
2024/02/22 13:47:08;;;;;;;10.53;6.83;;;;;;;;;;754371;184;758527;-67
2024/02/22 13:49:34;;;;;;;10.07;6.57;;;;;;;;;;749799;184;873522;-66
2024/02/22 13:52:00;;;;;;;13.80;7.53;;;;;;;;;;748363;185;917756;-64
2024/02/22 13:54:27;;;;;;;12.23;5.80;;;;;;;;;;752934;183;805675;-66
2024/02/22 13:56:52;;;;;;;8.47;5.93;;;;;;;;;;754745;185;817999;-66
2024/02/22 13:59:18;;;;;;;10.03;5.90;;;;;;;;;;751353;184;939531;-65
2024/02/22 14:01:44;;;;;;;10.55;6.72;;;;;;;;;;749789;185;917279;-67
2024/02/22 14:04:09;;;;;;;10.40;6.53;;;;;;;;;;755583;184;914337;-66
2024/02/22 14:06:35;;;;;;;12.37;6.70;;;;;;;;;;751257;185;875103;-68
2024/02/22 14:09:01;;;;;;;11.43;5.80;;;;;;;;;;749595;185;777704;-66
2024/02/22 14:11:27;;;;;;;11.40;6.90;;;;;;;;;;753592;185;818176;-64
2024/02/22 14:13:53;;;;;;;12.40;7.33;;;;;;;;;;743331;185;1021175;-66
2024/02/22 14:16:19;;;;;;;11.77;6.63;;;;;;;;;;749055;185;925286;-63